Time;durP1;ratioP1;P1;durP2;ratioP2;P2;SDS_P1;SDS_P2;PMS_P1;PMS_P2;Temp;Humidity;BMP_temperature;BMP_pressure;BME280_temperature;BME280_humidity;BME280_pressure;Samples;Min_cycle;Max_cycle;Signal;HPM_P1;HPM_P2
2022/03/05 00:00:04;;;;;;;;;;;5.10;84.00;;;;;;5081185;28;19909;-80
2022/03/05 00:02:30;;;;;;;;;;;5.10;83.30;;;;;;5080776;28;19968;-80
2022/03/05 00:04:55;;;;;;;;;;;5.10;82.80;;;;;;5081143;28;20375;-80
2022/03/05 00:07:21;;;;;;;;;;;5.00;82.90;;;;;;5081016;28;19991;-80
2022/03/05 00:09:47;;;;;;;;;;;5.00;82.60;;;;;;5080825;28;19909;-80
2022/03/05 00:12:13;;;;;;;;;;;5.00;83.50;;;;;;5080707;28;19958;-80
2022/03/05 00:14:38;;;;;;;;;;;4.90;83.30;;;;;;5081152;28;19974;-81
2022/03/05 00:17:04;;;;;;;;;;;4.90;83.50;;;;;;5080435;28;19992;-81
2022/03/05 00:19:29;;;;;;;;;;;4.90;85.10;;;;;;5080926;28;19954;-80
2022/03/05 00:21:57;;;;;;;;;;;4.90;84.50;;;;;;5080607;28;19912;-80
2022/03/05 00:24:22;;;;;;;;;;;4.80;85.10;;;;;;5062692;28;20350;-80
2022/03/05 00:26:48;;;;;;;;;;;4.90;85.90;;;;;;5080689;28;19955;-81
2022/03/05 00:29:14;;;;;;;;;;;4.80;85.70;;;;;;5081115;28;19958;-80
2022/03/05 00:31:39;;;;;;;;;;;4.80;84.80;;;;;;5062377;28;20398;-80
2022/03/05 00:34:05;;;;;;;;;;;4.80;85.00;;;;;;5080450;28;19908;-80
2022/03/05 00:36:30;;;;;;;;;;;4.70;85.60;;;;;;5062707;28;19909;-80
2022/03/05 00:38:56;;;;;;;;;;;4.70;84.70;;;;;;5062029;28;19908;-81
2022/03/05 00:41:22;;;;;;;;;;;4.70;84.90;;;;;;5062242;28;19913;-80
2022/03/05 00:43:48;;;;;;;;;;;4.70;84.50;;;;;;5080411;28;19959;-80
2022/03/05 00:46:13;;;;;;;;;;;4.60;84.30;;;;;;5066588;28;19916;-80
2022/03/05 00:48:40;;;;;;;;;;;4.60;84.10;;;;;;5080614;28;20398;-80
2022/03/05 00:51:06;;;;;;;;;;;4.60;84.50;;;;;;5080381;28;19909;-81
2022/03/05 00:53:31;;;;;;;;;;;4.60;85.00;;;;;;5080369;28;19908;-80
2022/03/05 00:55:57;;;;;;;;;;;4.60;85.50;;;;;;5079918;28;19909;-80
2022/03/05 00:58:23;;;;;;;;;;;4.50;85.10;;;;;;5080302;28;20057;-80
2022/03/05 01:00:48;;;;;;;;;;;4.50;85.30;;;;;;5061635;28;19962;-81
2022/03/05 01:03:14;;;;;;;;;;;4.50;85.50;;;;;;5076926;28;19913;-80
2022/03/05 01:05:40;;;;;;;;;;;4.50;86.00;;;;;;5078023;28;20355;-81
2022/03/05 01:08:05;;;;;;;;;;;4.40;84.80;;;;;;5079931;28;19940;-80
2022/03/05 01:10:31;;;;;;;;;;;4.40;84.30;;;;;;5079576;28;19908;-80
2022/03/05 01:12:57;;;;;;;;;;;4.40;84.30;;;;;;5062377;28;20357;-80
2022/03/05 01:15:22;;;;;;;;;;;4.40;85.40;;;;;;5079469;28;19908;-80
2022/03/05 01:17:48;;;;;;;;;;;4.40;85.50;;;;;;5061793;28;19908;-81
2022/03/05 01:20:14;;;;;;;;;;;4.30;85.20;;;;;;5061587;28;20392;-80
2022/03/05 01:22:39;;;;;;;;;;;4.30;85.60;;;;;;5079777;28;19915;-81
2022/03/05 01:25:05;;;;;;;;;;;4.30;85.10;;;;;;5079417;28;19940;-80
2022/03/05 01:27:31;;;;;;;;;;;4.30;84.90;;;;;;5079614;28;19912;-80
2022/03/05 01:29:56;;;;;;;;;;;4.30;85.20;;;;;;5079275;28;19909;-80
2022/03/05 01:32:22;;;;;;;;;;;4.20;85.80;;;;;;5061508;28;19961;-80
2022/03/05 01:34:48;;;;;;;;;;;4.20;85.80;;;;;;5079610;28;19913;-80
2022/03/05 01:37:13;;;;;;;;;;;4.20;86.50;;;;;;5079383;28;19908;-80
2022/03/05 01:39:41;;;;;;;;;;;4.20;86.60;;;;;;5078944;28;19916;-81
2022/03/05 01:42:07;;;;;;;;;;;4.20;87.20;;;;;;5061204;28;19909;-80
2022/03/05 01:44:33;;;;;;;;;;;4.20;87.20;;;;;;5074479;28;19920;-80
2022/03/05 01:47:02;;;;;;;;;;;4.10;86.80;;;;;;5070065;28;19913;-80
2022/03/05 01:49:29;;;;;;;;;;;4.20;87.90;;;;;;5079073;28;19915;-80
2022/03/05 01:51:56;;;;;;;;;;;4.10;88.00;;;;;;5079272;28;19927;-80
2022/03/05 01:54:22;;;;;;;;;;;4.10;88.20;;;;;;5078906;28;19948;-80
2022/03/05 01:56:48;;;;;;;;;;;4.10;88.40;;;;;;5079161;28;19908;-81
2022/03/05 01:59:13;;;;;;;;;;;4.10;89.00;;;;;;5078843;28;20336;-81
2022/03/05 02:01:39;;;;;;;;;;;4.00;88.50;;;;;;5078704;28;20396;-80
2022/03/05 02:04:05;;;;;;;;;;;4.00;88.70;;;;;;5056292;28;19908;-80
2022/03/05 02:06:31;;;;;;;;;;;4.00;88.50;;;;;;5078737;28;20493;-80
2022/03/05 02:08:59;;;;;;;;;;;4.00;88.70;;;;;;5078461;28;19909;-81
2022/03/05 02:11:26;;;;;;;;;;;4.00;89.10;;;;;;5078660;28;20406;-80
2022/03/05 02:13:52;;;;;;;;;;;4.00;89.20;;;;;;5078616;28;19909;-80
2022/03/05 02:16:19;;;;;;;;;;;3.90;89.30;;;;;;5078347;28;19908;-80
2022/03/05 02:18:49;;;;;;;;;;;3.90;89.00;;;;;;5065443;28;19961;-81
2022/03/05 02:21:16;;;;;;;;;;;3.90;88.70;;;;;;5078570;28;19912;-80
2022/03/05 02:23:41;;;;;;;;;;;3.90;89.20;;;;;;5078637;28;19991;-80
2022/03/05 02:26:07;;;;;;;;;;;3.90;90.00;;;;;;5078120;28;19958;-80
2022/03/05 02:28:33;;;;;;;;;;;3.80;90.00;;;;;;5078854;28;20390;-80
2022/03/05 02:30:59;;;;;;;;;;;3.80;90.00;;;;;;5077969;28;19908;-80
2022/03/05 02:33:25;;;;;;;;;;;3.80;89.00;;;;;;5078326;28;19908;-80
2022/03/05 02:35:51;;;;;;;;;;;3.80;88.70;;;;;;5060140;28;19916;-81
2022/03/05 02:38:17;;;;;;;;;;;3.70;88.40;;;;;;5078544;28;19909;-80
2022/03/05 02:40:44;;;;;;;;;;;3.70;89.00;;;;;;5077846;28;19909;-80
2022/03/05 02:43:10;;;;;;;;;;;3.70;88.90;;;;;;5060458;28;19916;-80
2022/03/05 02:45:36;;;;;;;;;;;3.70;90.00;;;;;;5064764;28;19921;-80
2022/03/05 02:48:02;;;;;;;;;;;3.70;90.00;;;;;;5060005;28;19919;-81
2022/03/05 02:50:28;;;;;;;;;;;3.70;90.20;;;;;;5078243;28;20409;-80
2022/03/05 02:52:54;;;;;;;;;;;3.70;90.40;;;;;;5046937;28;19908;-81
2022/03/05 02:55:20;;;;;;;;;;;3.70;90.20;;;;;;5059828;28;19915;-80
2022/03/05 02:57:45;;;;;;;;;;;3.60;90.00;;;;;;5078092;28;19908;-80
2022/03/05 03:00:11;;;;;;;;;;;3.60;89.90;;;;;;5059580;28;19916;-81
2022/03/05 03:02:38;;;;;;;;;;;3.60;90.20;;;;;;5077964;28;19915;-80
2022/03/05 03:05:04;;;;;;;;;;;3.50;90.10;;;;;;5073588;28;19908;-80
2022/03/05 03:07:30;;;;;;;;;;;3.50;90.00;;;;;;5060129;28;19962;-80
2022/03/05 03:09:56;;;;;;;;;;;3.50;90.00;;;;;;5059860;28;19909;-80
2022/03/05 03:12:22;;;;;;;;;;;3.50;90.00;;;;;;5078195;28;19915;-80
2022/03/05 03:14:47;;;;;;;;;;;3.50;90.30;;;;;;5059637;28;19958;-80
2022/03/05 03:17:13;;;;;;;;;;;3.50;90.40;;;;;;5077679;28;19909;-80
2022/03/05 03:19:39;;;;;;;;;;;3.50;90.30;;;;;;5077651;28;19908;-80
2022/03/05 03:22:04;;;;;;;;;;;3.40;89.80;;;;;;5077815;28;19946;-80
2022/03/05 03:24:30;;;;;;;;;;;3.40;89.50;;;;;;5077668;28;19940;-80
2022/03/05 03:26:56;;;;;;;;;;;3.40;89.70;;;;;;5077975;28;19919;-80
2022/03/05 03:29:21;;;;;;;;;;;3.50;90.20;;;;;;5061086;28;20003;-81
2022/03/05 03:31:47;;;;;;;;;;;3.50;90.40;;;;;;5063409;28;20314;-80
2022/03/05 03:34:13;;;;;;;;;;;3.50;90.30;;;;;;5081544;28;19909;-80
2022/03/05 03:36:38;;;;;;;;;;;3.50;90.70;;;;;;5081772;28;19908;-80
2022/03/05 03:39:04;;;;;;;;;;;3.50;91.10;;;;;;5081720;28;19913;-81
2022/03/05 03:41:29;;;;;;;;;;;3.50;91.20;;;;;;5064105;28;19915;-80
2022/03/05 03:43:55;;;;;;;;;;;3.50;91.00;;;;;;5081328;28;19909;-80
2022/03/05 03:46:21;;;;;;;;;;;3.50;91.10;;;;;;5049824;28;19916;-80
2022/03/05 03:48:46;;;;;;;;;;;3.40;91.00;;;;;;5063738;28;19908;-80
2022/03/05 03:51:12;;;;;;;;;;;3.40;90.80;;;;;;5081485;28;20318;-80
2022/03/05 03:53:38;;;;;;;;;;;3.40;90.80;;;;;;5081320;28;19908;-80
2022/03/05 03:56:03;;;;;;;;;;;3.40;91.00;;;;;;5081080;28;19908;-80
2022/03/05 03:58:29;;;;;;;;;;;3.40;90.90;;;;;;5081543;28;20330;-80
2022/03/05 04:00:55;;;;;;;;;;;3.30;90.50;;;;;;5080800;28;19919;-81
2022/03/05 04:03:20;;;;;;;;;;;3.30;90.30;;;;;;5059299;28;19916;-80
2022/03/05 04:05:46;;;;;;;;;;;3.30;90.20;;;;;;5062675;28;19909;-81
2022/03/05 04:10:56;;;;;;;;;;;3.20;90.30;;;;;;5077571;28;19915;-80
2022/03/05 04:13:21;;;;;;;;;;;3.20;90.60;;;;;;5063256;28;20295;-80
2022/03/05 04:15:47;;;;;;;;;;;3.20;90.60;;;;;;5063080;28;20275;-80
2022/03/05 04:18:13;;;;;;;;;;;3.10;90.30;;;;;;5080789;28;19916;-80
2022/03/05 04:20:38;;;;;;;;;;;3.10;90.20;;;;;;5081084;28;19916;-80
2022/03/05 04:23:04;;;;;;;;;;;3.20;90.60;;;;;;5062638;28;19909;-80
2022/03/05 04:25:30;;;;;;;;;;;3.10;90.70;;;;;;5081012;28;19909;-81
2022/03/05 04:27:55;;;;;;;;;;;3.10;90.70;;;;;;5062548;28;19912;-80
2022/03/05 04:30:21;;;;;;;;;;;3.20;91.10;;;;;;5080472;28;19913;-80
2022/03/05 04:32:47;;;;;;;;;;;3.20;91.40;;;;;;5080710;28;19912;-80
2022/03/05 04:35:12;;;;;;;;;;;3.10;91.40;;;;;;5080754;28;19995;-80
2022/03/05 04:37:38;;;;;;;;;;;3.10;91.40;;;;;;5062623;28;19908;-80
2022/03/05 04:40:05;;;;;;;;;;;3.20;91.60;;;;;;5061956;28;20359;-80
2022/03/05 04:42:31;;;;;;;;;;;3.20;91.70;;;;;;5062265;28;19908;-80
2022/03/05 04:44:56;;;;;;;;;;;3.20;91.30;;;;;;5072455;28;19920;-80
2022/03/05 04:47:22;;;;;;;;;;;3.20;91.20;;;;;;5074581;28;19919;-80
2022/03/05 04:49:50;;;;;;;;;;;3.20;91.10;;;;;;5061917;28;21496;-80
2022/03/05 04:52:15;;;;;;;;;;;3.20;90.90;;;;;;5080147;28;19958;-81
2022/03/05 04:54:41;;;;;;;;;;;3.20;90.80;;;;;;5062184;28;19912;-80
2022/03/05 04:57:07;;;;;;;;;;;3.30;91.10;;;;;;5080069;28;19973;-80
2022/03/05 04:59:32;;;;;;;;;;;3.30;91.00;;;;;;5062435;28;19909;-80
2022/03/05 05:01:58;;;;;;;;;;;3.30;90.60;;;;;;5061683;28;20006;-80
2022/03/05 05:04:24;;;;;;;;;;;3.30;90.80;;;;;;5058100;28;19932;-80
2022/03/05 05:06:50;;;;;;;;;;;3.40;91.20;;;;;;5079832;28;19919;-80
2022/03/05 05:09:15;;;;;;;;;;;3.40;91.00;;;;;;5061794;28;19908;-80
2022/03/05 05:11:44;;;;;;;;;;;3.40;90.50;;;;;;5080018;28;19995;-81
2022/03/05 05:14:10;;;;;;;;;;;3.40;90.10;;;;;;5061856;28;19968;-80
2022/03/05 05:16:36;;;;;;;;;;;3.50;89.60;;;;;;5061632;28;19915;-80
2022/03/05 05:21:46;;;;;;;;;;;3.60;89.70;;;;;;5079812;28;19999;-80
2022/03/05 05:24:12;;;;;;;;;;;3.60;89.00;;;;;;5062010;28;19939;-80
2022/03/05 05:26:38;;;;;;;;;;;3.60;89.20;;;;;;5079373;28;19940;-80
2022/03/05 05:29:04;;;;;;;;;;;3.70;88.90;;;;;;5062096;28;19908;-80
2022/03/05 05:31:29;;;;;;;;;;;3.70;88.70;;;;;;5079014;28;19909;-80
2022/03/05 05:33:55;;;;;;;;;;;3.70;88.30;;;;;;5079259;28;20253;-80
2022/03/05 05:36:20;;;;;;;;;;;3.70;87.70;;;;;;5079308;28;19908;-80
2022/03/05 05:38:46;;;;;;;;;;;3.80;87.40;;;;;;5061618;28;20390;-81
2022/03/05 05:41:16;;;;;;;;;;;3.80;87.20;;;;;;5061078;28;20291;-80
2022/03/05 05:43:42;;;;;;;;;;;3.80;87.10;;;;;;5061648;28;19909;-80
2022/03/05 05:46:07;;;;;;;;;;;3.90;87.20;;;;;;5065210;28;20026;-80
2022/03/05 05:48:33;;;;;;;;;;;3.90;87.20;;;;;;5061524;28;19912;-80
2022/03/05 05:50:58;;;;;;;;;;;3.90;87.00;;;;;;5079007;28;20007;-80
2022/03/05 05:53:25;;;;;;;;;;;3.90;86.70;;;;;;5060516;28;19920;-80
2022/03/05 05:55:53;;;;;;;;;;;3.90;86.80;;;;;;5079083;28;19950;-80
2022/03/05 05:58:19;;;;;;;;;;;4.00;86.90;;;;;;5061055;28;19912;-80
2022/03/05 06:00:45;;;;;;;;;;;4.00;88.30;;;;;;5061063;28;19952;-81
2022/03/05 06:03:10;;;;;;;;;;;4.00;88.90;;;;;;5058228;28;20410;-81
2022/03/05 06:05:36;;;;;;;;;;;4.10;89.80;;;;;;5058948;28;19958;-80
2022/03/05 06:08:02;;;;;;;;;;;4.10;90.10;;;;;;5078952;28;19912;-81
2022/03/05 06:10:27;;;;;;;;;;;4.10;90.20;;;;;;5078723;28;19971;-80
2022/03/05 06:12:53;;;;;;;;;;;4.10;90.20;;;;;;5060940;28;19908;-81
2022/03/05 06:15:18;;;;;;;;;;;4.20;90.40;;;;;;5078474;28;19999;-81
2022/03/05 06:17:44;;;;;;;;;;;4.20;90.20;;;;;;5078768;28;20479;-81
2022/03/05 06:20:10;;;;;;;;;;;4.20;90.50;;;;;;5078690;28;19915;-81
2022/03/05 06:22:36;;;;;;;;;;;4.30;90.80;;;;;;5060808;28;19944;-81
2022/03/05 06:25:02;;;;;;;;;;;4.30;91.10;;;;;;5078264;28;20326;-81
2022/03/05 06:27:28;;;;;;;;;;;4.30;91.30;;;;;;5060401;28;19958;-80
2022/03/05 06:29:54;;;;;;;;;;;4.40;91.30;;;;;;5078093;28;19914;-81
2022/03/05 06:32:19;;;;;;;;;;;4.40;91.20;;;;;;5078161;28;19909;-80
2022/03/05 06:34:45;;;;;;;;;;;4.40;91.10;;;;;;5078150;28;19965;-81
2022/03/05 06:37:10;;;;;;;;;;;4.40;91.10;;;;;;5078334;28;20257;-81
2022/03/05 06:39:36;;;;;;;;;;;4.40;90.70;;;;;;5059914;28;20442;-80
2022/03/05 06:42:02;;;;;;;;;;;4.40;90.60;;;;;;5060232;28;19946;-81
2022/03/05 06:44:27;;;;;;;;;;;4.40;90.30;;;;;;5074013;28;19973;-81
2022/03/05 06:46:53;;;;;;;;;;;4.50;90.40;;;;;;5050403;28;19921;-81
2022/03/05 06:49:19;;;;;;;;;;;4.50;90.40;;;;;;5060290;28;19951;-81
2022/03/05 06:51:45;;;;;;;;;;;4.50;90.40;;;;;;5060446;28;19913;-80
2022/03/05 06:54:10;;;;;;;;;;;4.50;90.60;;;;;;5060371;28;19909;-81
2022/03/05 06:56:37;;;;;;;;;;;4.60;90.60;;;;;;5078489;28;19915;-81
2022/03/05 06:59:03;;;;;;;;;;;4.60;90.20;;;;;;5077917;28;19916;-81
2022/03/05 07:01:28;;;;;;;;;;;4.60;90.30;;;;;;5077709;28;19908;-81
2022/03/05 07:03:54;;;;;;;;;;;4.60;90.30;;;;;;5072667;28;19909;-81
2022/03/05 07:06:19;;;;;;;;;;;4.70;90.30;;;;;;5078019;28;19916;-80
2022/03/05 07:08:45;;;;;;;;;;;4.70;90.40;;;;;;5077679;28;19919;-81
2022/03/05 07:11:11;;;;;;;;;;;4.70;90.50;;;;;;5077669;28;19916;-81
2022/03/05 07:13:36;;;;;;;;;;;4.80;90.60;;;;;;5077646;28;19908;-80
2022/03/05 07:16:02;;;;;;;;;;;4.80;90.80;;;;;;5077643;28;19908;-81
2022/03/05 07:18:27;;;;;;;;;;;4.90;91.10;;;;;;5059548;28;19999;-81
2022/03/05 07:20:53;;;;;;;;;;;4.90;91.10;;;;;;5059762;28;19915;-81
2022/03/05 07:23:19;;;;;;;;;;;4.90;91.00;;;;;;5077759;28;19909;-81
2022/03/05 07:25:44;;;;;;;;;;;5.00;90.90;;;;;;5059969;28;19935;-80
2022/03/05 07:28:11;;;;;;;;;;;5.00;91.20;;;;;;5077443;28;20409;-81
2022/03/05 07:30:39;;;;;;;;;;;5.00;91.00;;;;;;5077573;28;19975;-80
2022/03/05 07:33:05;;;;;;;;;;;5.10;91.30;;;;;;5077599;28;19962;-81
2022/03/05 07:35:31;;;;;;;;;;;5.10;91.10;;;;;;5077967;28;19913;-81
2022/03/05 07:37:56;;;;;;;;;;;5.10;91.10;;;;;;5059658;28;19932;-81
2022/03/05 07:40:22;;;;;;;;;;;5.10;91.00;;;;;;5077569;28;19915;-81
2022/03/05 07:42:48;;;;;;;;;;;5.20;90.90;;;;;;5059591;28;19915;-81
2022/03/05 07:45:13;;;;;;;;;;;5.20;90.60;;;;;;5045653;28;19928;-81
2022/03/05 07:47:39;;;;;;;;;;;5.20;90.70;;;;;;5053914;28;19920;-80
2022/03/05 07:50:05;;;;;;;;;;;5.20;90.60;;;;;;5057463;28;19909;-81
2022/03/05 07:52:30;;;;;;;;;;;5.30;90.50;;;;;;5055859;28;19916;-81
2022/03/05 07:54:56;;;;;;;;;;;5.30;90.60;;;;;;5056577;28;20295;-81
2022/03/05 07:57:22;;;;;;;;;;;5.40;90.80;;;;;;5057258;28;20387;-81
2022/03/05 07:59:47;;;;;;;;;;;5.50;91.00;;;;;;5057279;28;19992;-81
2022/03/05 08:02:15;;;;;;;;;;;5.50;91.00;;;;;;5055990;28;20419;-81
2022/03/05 08:04:41;;;;;;;;;;;5.50;90.90;;;;;;5052951;28;19952;-81
2022/03/05 08:07:07;;;;;;;;;;;5.60;91.10;;;;;;5057365;28;19999;-80
2022/03/05 08:09:35;;;;;;;;;;;5.60;91.00;;;;;;5057252;28;19932;-81
2022/03/05 08:12:02;;;;;;;;;;;5.60;90.80;;;;;;5057040;28;19908;-81
2022/03/05 08:14:27;;;;;;;;;;;5.70;91.10;;;;;;5055977;28;19908;-81
2022/03/05 08:16:53;;;;;;;;;;;5.70;91.00;;;;;;5060367;28;19909;-81
2022/03/05 08:19:19;;;;;;;;;;;5.80;90.80;;;;;;5059615;28;19915;-82
2022/03/05 08:21:44;;;;;;;;;;;5.80;90.70;;;;;;5060768;28;19913;-81
2022/03/05 08:24:10;;;;;;;;;;;5.80;90.50;;;;;;5060652;28;20427;-81
2022/03/05 08:26:37;;;;;;;;;;;5.90;90.70;;;;;;5060539;28;19919;-81
2022/03/05 08:29:03;;;;;;;;;;;6.00;90.70;;;;;;5060771;28;19991;-81
2022/03/05 08:31:30;;;;;;;;;;;6.00;90.50;;;;;;5055553;28;19944;-81
2022/03/05 08:33:58;;;;;;;;;;;6.10;90.50;;;;;;5057817;28;20410;-81
2022/03/05 08:36:24;;;;;;;;;;;6.10;90.30;;;;;;5059139;28;19988;-81
2022/03/05 08:38:49;;;;;;;;;;;6.20;90.30;;;;;;5060470;28;20367;-81
2022/03/05 08:41:15;;;;;;;;;;;6.30;90.50;;;;;;5059562;28;19913;-81
2022/03/05 08:43:42;;;;;;;;;;;6.40;90.30;;;;;;5059539;28;19991;-81
2022/03/05 08:46:08;;;;;;;;;;;6.50;90.40;;;;;;5077175;28;19927;-81
2022/03/05 08:48:34;;;;;;;;;;;6.60;90.50;;;;;;5062590;28;20367;-81
2022/03/05 08:51:00;;;;;;;;;;;6.70;90.50;;;;;;5080418;28;19909;-81
2022/03/05 08:53:26;;;;;;;;;;;6.80;90.40;;;;;;5080368;28;19915;-81
2022/03/05 08:55:52;;;;;;;;;;;6.90;90.40;;;;;;5062156;28;19915;-81
2022/03/05 08:58:17;;;;;;;;;;;7.10;90.40;;;;;;5080172;28;20370;-81
2022/03/05 09:00:43;;;;;;;;;;;7.30;90.40;;;;;;5080006;28;19911;-81
2022/03/05 09:03:09;;;;;;;;;;;7.50;90.40;;;;;;5080039;28;19957;-81
2022/03/05 09:05:35;;;;;;;;;;;7.90;90.60;;;;;;5062338;28;20014;-81
2022/03/05 09:08:01;;;;;;;;;;;8.20;90.30;;;;;;5079831;28;20386;-81
2022/03/05 09:10:26;;;;;;;;;;;8.40;90.20;;;;;;5080204;28;19909;-81
2022/03/05 09:12:52;;;;;;;;;;;8.70;90.00;;;;;;5079878;28;19954;-81
2022/03/05 09:15:17;;;;;;;;;;;8.90;89.80;;;;;;5079671;28;19908;-81
2022/03/05 09:17:43;;;;;;;;;;;9.20;89.30;;;;;;5079904;28;19915;-81
2022/03/05 09:20:10;;;;;;;;;;;9.40;89.20;;;;;;5062020;28;20007;-81
2022/03/05 09:22:36;;;;;;;;;;;9.60;89.30;;;;;;5079579;28;19957;-81
2022/03/05 09:25:01;;;;;;;;;;;9.90;88.90;;;;;;5062156;28;19954;-81
2022/03/05 09:27:27;;;;;;;;;;;10.10;88.20;;;;;;5060853;28;19920;-81
2022/03/05 09:29:53;;;;;;;;;;;10.30;87.80;;;;;;5079400;28;19917;-81
2022/03/05 09:32:19;;;;;;;;;;;10.50;87.50;;;;;;5074557;28;19908;-81
2022/03/05 09:34:44;;;;;;;;;;;10.60;87.30;;;;;;5079423;28;19908;-81
2022/03/05 09:37:10;;;;;;;;;;;10.70;86.70;;;;;;5079314;28;19908;-81
2022/03/05 09:39:37;;;;;;;;;;;10.70;85.80;;;;;;5077478;28;19908;-81
2022/03/05 09:42:04;;;;;;;;;;;10.70;85.50;;;;;;5079472;28;19909;-81
2022/03/05 09:44:30;;;;;;;;;;;10.60;85.50;;;;;;5078835;28;20298;-81
2022/03/05 09:46:56;;;;;;;;;;;10.50;85.30;;;;;;5061281;28;19912;-81
2022/03/05 09:49:23;;;;;;;;;;;10.40;85.00;;;;;;5061248;28;20767;-81
2022/03/05 09:51:48;;;;;;;;;;;10.40;85.10;;;;;;5061418;28;19995;-81
2022/03/05 09:54:14;;;;;;;;;;;10.30;83.90;;;;;;5061063;28;19948;-81
2022/03/05 09:56:39;;;;;;;;;;;10.20;83.70;;;;;;5061342;28;19957;-81
2022/03/05 09:59:07;;;;;;;;;;;10.10;83.80;;;;;;5061064;28;19959;-81
2022/03/05 10:01:33;;;;;;;;;;;10.00;83.80;;;;;;5078693;28;19908;-82
2022/03/05 10:03:59;;;;;;;;;;;10.00;83.70;;;;;;5078656;28;19974;-82
2022/03/05 10:06:28;;;;;;;;;;;10.10;83.80;;;;;;5061239;28;19917;-81
2022/03/05 10:08:57;;;;;;;;;;;10.10;82.90;;;;;;5078741;28;19954;-81
2022/03/05 10:11:37;;;;;;;;;;;10.20;82.70;;;;;;5053107;28;19909;-81
2022/03/05 10:14:13;;;;;;;;;;;10.10;83.00;;;;;;5065907;28;19908;-81
2022/03/05 10:16:39;;;;;;;;;;;10.10;83.90;;;;;;5078445;28;20286;-81
2022/03/05 10:19:15;;;;;;;;;;;10.70;86.60;;;;;;5078870;28;19919;-81
2022/03/05 10:21:54;;;;;;;;;;;11.70;87.00;;;;;;5078461;28;19908;-81
2022/03/05 10:24:28;;;;;;;;;;;13.00;84.30;;;;;;5078372;28;19916;-82
2022/03/05 10:26:55;;;;;;;;;;;14.30;80.90;;;;;;5065563;28;20011;-81
2022/03/05 10:29:22;;;;;;;;;;;15.20;75.60;;;;;;5060752;28;19999;-81
2022/03/05 10:32:04;;;;;;;;;;;15.40;73.30;;;;;;5073081;28;20315;-82
2022/03/05 10:34:42;;;;;;;;;;;15.20;69.80;;;;;;5060349;28;19909;-82
2022/03/05 10:37:08;;;;;;;;;;;14.90;69.20;;;;;;5078175;28;19909;-81
2022/03/05 10:39:34;;;;;;;;;;;14.90;69.90;;;;;;5059871;28;19916;-82
2022/03/05 10:41:59;;;;;;;;;;;15.40;70.50;;;;;;5060534;28;19915;-82
2022/03/05 10:44:25;;;;;;;;;;;16.10;71.50;;;;;;5077859;28;20450;-82
2022/03/05 10:46:54;;;;;;;;;;;16.80;73.00;;;;;;5078096;28;19917;-82
2022/03/05 10:49:22;;;;;;;;;;;17.20;68.70;;;;;;5060170;28;19909;-82
2022/03/05 10:51:48;;;;;;;;;;;17.30;66.80;;;;;;5078029;28;19909;-82
2022/03/05 10:54:24;;;;;;;;;;;17.50;67.40;;;;;;5060029;28;19999;-82
2022/03/05 10:56:50;;;;;;;;;;;17.90;65.00;;;;;;5059941;28;19995;-82
2022/03/05 10:59:16;;;;;;;;;;;18.20;63.00;;;;;;5060271;28;19993;-81
2022/03/05 11:01:42;;;;;;;;;;;18.30;64.50;;;;;;5059897;28;19909;-82
2022/03/05 11:04:09;;;;;;;;;;;18.70;62.10;;;;;;5059823;28;20355;-82
2022/03/05 11:06:37;;;;;;;;;;;19.10;62.00;;;;;;5077935;28;20378;-82
2022/03/05 11:09:03;;;;;;;;;;;19.60;62.70;;;;;;5077808;28;19938;-82
2022/03/05 11:11:29;;;;;;;;;;;20.10;63.00;;;;;;5077690;28;19958;-82
2022/03/05 11:13:55;;;;;;;;;;;20.50;60.50;;;;;;5077914;28;19912;-82
2022/03/05 11:16:21;;;;;;;;;;;20.80;60.80;;;;;;5077352;28;19932;-82
2022/03/05 11:18:47;;;;;;;;;;;21.20;59.30;;;;;;5059935;28;20405;-82
2022/03/05 11:21:13;;;;;;;;;;;21.40;57.90;;;;;;5077672;28;19912;-81
2022/03/05 11:23:40;;;;;;;;;;;21.40;58.30;;;;;;5059631;28;20314;-82
2022/03/05 11:26:07;;;;;;;;;;;21.50;57.80;;;;;;5077359;28;19919;-81
2022/03/05 11:28:36;;;;;;;;;;;21.60;56.70;;;;;;5078003;28;19909;-81
2022/03/05 11:31:19;;;;;;;;;;;21.60;57.20;;;;;;5077138;28;19944;-82
2022/03/05 11:33:46;;;;;;;;;;;21.60;58.30;;;;;;5074956;28;20348;-81
2022/03/05 11:36:30;;;;;;;;;;;21.60;54.10;;;;;;5077489;28;19915;-81
2022/03/05 11:39:11;;;;;;;;;;;21.10;53.10;;;;;;5077471;28;19913;-82
2022/03/05 11:41:53;;;;;;;;;;;20.50;54.00;;;;;;5077884;28;19908;-81
2022/03/05 11:44:20;;;;;;;;;;;20.30;56.00;;;;;;5077303;28;19933;-81
2022/03/05 11:46:46;;;;;;;;;;;20.50;56.50;;;;;;5077462;28;20007;-81
2022/03/05 11:49:13;;;;;;;;;;;20.80;55.20;;;;;;5059523;28;19947;-81
2022/03/05 11:51:53;;;;;;;;;;;21.20;52.90;;;;;;5080997;28;19969;-81
2022/03/05 11:54:19;;;;;;;;;;;21.30;53.30;;;;;;5063122;28;20444;-81
2022/03/05 11:57:00;;;;;;;;;;;21.20;53.60;;;;;;5081619;28;19912;-81
2022/03/05 11:59:33;;;;;;;;;;;21.40;54.10;;;;;;5068371;28;19943;-81
2022/03/05 12:01:59;;;;;;;;;;;21.40;52.50;;;;;;5063311;28;19909;-81
2022/03/05 12:04:27;;;;;;;;;;;21.10;51.00;;;;;;5076383;28;19916;-81
2022/03/05 12:06:56;;;;;;;;;;;20.80;52.00;;;;;;5081196;28;19913;-81
2022/03/05 12:09:34;;;;;;;;;;;20.20;50.90;;;;;;5081129;28;19962;-81
2022/03/05 12:12:00;;;;;;;;;;;20.00;51.50;;;;;;5062927;28;20001;-81
2022/03/05 12:14:49;;;;;;;;;;;20.10;51.80;;;;;;5081018;28;19943;-81
2022/03/05 12:17:19;;;;;;;;;;;20.00;53.60;;;;;;5060308;28;19919;-81
2022/03/05 12:19:45;;;;;;;;;;;19.70;54.40;;;;;;5080957;28;19916;-81
2022/03/05 12:22:15;;;;;;;;;;;19.30;52.00;;;;;;5063132;28;19909;-81
2022/03/05 12:24:40;;;;;;;;;;;19.30;52.20;;;;;;5062864;28;19995;-81
2022/03/05 12:27:09;;;;;;;;;;;19.20;52.40;;;;;;5081026;28;19994;-81
2022/03/05 12:29:35;;;;;;;;;;;19.00;52.70;;;;;;5062695;28;20364;-81
2022/03/05 12:32:00;;;;;;;;;;;18.90;53.10;;;;;;5058019;28;19908;-81
2022/03/05 12:34:28;;;;;;;;;;;19.00;52.90;;;;;;5080688;28;19909;-81
2022/03/05 12:36:54;;;;;;;;;;;19.30;54.10;;;;;;5080570;28;20268;-82
2022/03/05 12:39:23;;;;;;;;;;;19.50;54.70;;;;;;5078941;28;20011;-81
2022/03/05 12:41:49;;;;;;;;;;;19.70;53.50;;;;;;5080620;28;20342;-81
2022/03/05 12:44:14;;;;;;;;;;;19.70;53.50;;;;;;5062348;28;19920;-81
2022/03/05 12:46:40;;;;;;;;;;;19.60;54.20;;;;;;5062181;28;19952;-81
2022/03/05 12:49:06;;;;;;;;;;;19.60;55.10;;;;;;5080283;28;19915;-81
2022/03/05 12:51:32;;;;;;;;;;;19.80;55.50;;;;;;5062379;28;19915;-81
2022/03/05 12:54:02;;;;;;;;;;;19.90;51.30;;;;;;5080124;28;19909;-81
2022/03/05 12:56:28;;;;;;;;;;;20.00;51.00;;;;;;5062780;28;20341;-81
2022/03/05 12:58:57;;;;;;;;;;;20.00;51.60;;;;;;5080114;28;19986;-81
2022/03/05 13:01:23;;;;;;;;;;;19.90;51.30;;;;;;5061115;28;19912;-81
2022/03/05 13:03:50;;;;;;;;;;;19.80;52.60;;;;;;5061880;28;19958;-81
2022/03/05 13:06:17;;;;;;;;;;;19.70;51.30;;;;;;5080145;28;19912;-81
2022/03/05 13:08:43;;;;;;;;;;;19.60;52.00;;;;;;5079938;28;19909;-81
2022/03/05 13:11:10;;;;;;;;;;;19.50;51.60;;;;;;5061845;28;19915;-81
2022/03/05 13:13:37;;;;;;;;;;;19.40;52.50;;;;;;5079918;28;19915;-81
2022/03/05 13:16:04;;;;;;;;;;;19.10;53.20;;;;;;5079692;28;19916;-81
2022/03/05 13:18:29;;;;;;;;;;;18.70;53.20;;;;;;5079796;28;20294;-81
2022/03/05 13:20:59;;;;;;;;;;;18.50;54.50;;;;;;5080059;28;19912;-81
2022/03/05 13:23:24;;;;;;;;;;;18.40;54.90;;;;;;5079732;28;19909;-81
2022/03/05 13:25:50;;;;;;;;;;;18.40;55.30;;;;;;5061669;28;19916;-81
2022/03/05 13:28:17;;;;;;;;;;;18.20;53.70;;;;;;5079459;28;19918;-81
2022/03/05 13:30:49;;;;;;;;;;;17.90;52.90;;;;;;5079400;28;20003;-81
2022/03/05 13:33:33;;;;;;;;;;;17.50;52.50;;;;;;5074492;28;20371;-81
2022/03/05 13:35:59;;;;;;;;;;;17.20;54.60;;;;;;5061605;28;19909;-81
2022/03/05 13:38:26;;;;;;;;;;;17.00;55.30;;;;;;5079579;28;19915;-81
2022/03/05 13:40:52;;;;;;;;;;;16.90;55.90;;;;;;5077848;28;19908;-81
2022/03/05 13:43:23;;;;;;;;;;;16.70;56.20;;;;;;5079560;28;19947;-81
2022/03/05 13:45:50;;;;;;;;;;;16.50;57.10;;;;;;5078698;28;19920;-80
2022/03/05 13:48:16;;;;;;;;;;;16.20;55.70;;;;;;5061500;28;19998;-81
2022/03/05 13:50:42;;;;;;;;;;;16.10;57.20;;;;;;5079263;28;20371;-81
2022/03/05 13:53:08;;;;;;;;;;;16.00;57.50;;;;;;5061331;28;19955;-81
2022/03/05 13:55:33;;;;;;;;;;;15.80;57.10;;;;;;5078999;28;20002;-81
2022/03/05 13:57:59;;;;;;;;;;;15.70;58.20;;;;;;5079156;28;19948;-81
2022/03/05 14:00:26;;;;;;;;;;;15.60;58.40;;;;;;5078745;28;19966;-81
2022/03/05 14:02:53;;;;;;;;;;;15.50;59.00;;;;;;5079078;28;19908;-80
2022/03/05 14:05:21;;;;;;;;;;;15.40;59.40;;;;;;5078871;28;19955;-80
2022/03/05 14:07:49;;;;;;;;;;;15.40;58.60;;;;;;5078830;28;20010;-81
2022/03/05 14:10:16;;;;;;;;;;;15.40;57.90;;;;;;5078524;28;19908;-80
2022/03/05 14:12:48;;;;;;;;;;;15.30;56.50;;;;;;5078356;28;19958;-81
2022/03/05 14:15:14;;;;;;;;;;;15.20;57.30;;;;;;5060637;28;20436;-81
2022/03/05 14:17:45;;;;;;;;;;;14.90;58.10;;;;;;5079021;28;19909;-81
2022/03/05 14:20:11;;;;;;;;;;;14.70;58.90;;;;;;5078598;28;20367;-81
2022/03/05 14:22:51;;;;;;;;;;;14.50;59.80;;;;;;5060858;28;19908;-81
2022/03/05 14:25:19;;;;;;;;;;;14.40;60.70;;;;;;5066029;28;19909;-81
2022/03/05 14:27:45;;;;;;;;;;;14.40;59.80;;;;;;5078424;28;19912;-81